createdAt,value
2023-03-17T00:01:54.589Z,100801.81
2023-03-17T00:04:24.995Z,100809.91
2023-03-17T00:06:55.424Z,100812.94
2023-03-17T00:09:23.772Z,100810.22
2023-03-17T00:11:52.162Z,100808.31
2023-03-17T00:14:21.378Z,100811.81
2023-03-17T00:16:52.024Z,100816.09
2023-03-17T00:19:30.964Z,100805.63
2023-03-17T00:22:01.157Z,100810.22
2023-03-17T00:24:30.248Z,100811.81
2023-03-17T00:26:58.976Z,100814.50
2023-03-17T00:29:28.021Z,100808.31
2023-03-17T00:31:58.319Z,100809.91
2023-03-17T00:34:27.267Z,100796.41
2023-03-17T00:36:56.119Z,100798.78
2023-03-17T00:39:27.105Z,100790.66
2023-03-17T00:41:55.587Z,100784.47
2023-03-17T00:44:24.139Z,100778.28
2023-03-17T00:46:52.678Z,100784.47
2023-03-17T00:49:24.337Z,100772.91
2023-03-17T00:51:53.088Z,100768.59
2023-03-17T00:54:22.275Z,100764.78
2023-03-17T00:56:53.236Z,100761.31
2023-03-17T00:59:28.116Z,100761.97
2023-03-17T01:01:57.339Z,100765.81
2023-03-17T01:04:25.794Z,100758.06
2023-03-17T01:06:54.413Z,100763.78
2023-03-17T01:09:27.547Z,100750.63
2023-03-17T01:11:57.181Z,100746.38
2023-03-17T01:14:25.826Z,100750.97
2023-03-17T01:16:55.180Z,100747.84
2023-03-17T01:19:23.685Z,100750.53
2023-03-17T01:21:52.474Z,100750.06
2023-03-17T01:24:21.083Z,100751.66
2023-03-17T01:26:49.339Z,100747.84
2023-03-17T01:29:18.994Z,100765.97
2023-03-17T01:31:47.711Z,100769.44
2023-03-17T01:34:16.003Z,100772.16
2023-03-17T01:36:44.198Z,100772.81
2023-03-17T01:39:12.998Z,100770.03
2023-03-17T01:41:41.574Z,100778.81
2023-03-17T01:44:18.752Z,100776.09
2023-03-17T01:46:47.712Z,100761.47
2023-03-17T01:49:24.990Z,100772.19
2023-03-17T01:52:03.990Z,100772.88
2023-03-17T01:54:39.945Z,100754.31
2023-03-17T01:57:14.253Z,100745.00
2023-03-17T01:59:50.191Z,100754.56
2023-03-17T02:02:25.635Z,100748.28
2023-03-17T02:04:54.281Z,100757.06
2023-03-17T02:07:24.683Z,100749.97
2023-03-17T02:09:53.673Z,100743.72
2023-03-17T02:12:24.641Z,100738.56
2023-03-17T02:14:54.687Z,100734.94
2023-03-17T02:17:27.271Z,100728.22
2023-03-17T02:19:56.928Z,100722.97
2023-03-17T02:22:26.770Z,100728.25
2023-03-17T02:24:58.349Z,100729.72
2023-03-17T02:27:33.887Z,100724.22
2023-03-17T02:30:02.440Z,100731.88
2023-03-17T02:32:30.786Z,100737.59
2023-03-17T02:34:59.072Z,100735.69
2023-03-17T02:37:28.880Z,100726.69
2023-03-17T02:39:57.332Z,100730.50
2023-03-17T02:42:25.655Z,100740.88
2023-03-17T02:44:54.253Z,100736.13
2023-03-17T02:47:22.766Z,100728.38
2023-03-17T02:49:52.091Z,100727.59
2023-03-17T02:52:20.349Z,100732.53
2023-03-17T02:54:50.217Z,100734.00
2023-03-17T02:57:18.668Z,100724.25
2023-03-17T02:59:46.969Z,100736.84
2023-03-17T03:02:15.470Z,100727.53
2023-03-17T03:04:44.201Z,100728.50
2023-03-17T03:07:13.143Z,100721.00
2023-03-17T03:09:42.033Z,100722.78
2023-03-17T03:12:13.884Z,100725.69
2023-03-17T03:14:42.562Z,100713.69
2023-03-17T03:17:11.058Z,100722.75
2023-03-17T03:19:39.557Z,100715.78
2023-03-17T03:22:08.326Z,100705.25
2023-03-17T03:24:36.883Z,100710.97
2023-03-17T03:27:05.357Z,100708.13
2023-03-17T03:29:35.054Z,100710.41
2023-03-17T03:32:03.416Z,100709.63
2023-03-17T03:34:31.949Z,100714.25
2023-03-17T03:37:00.252Z,100712.66
2023-03-17T03:39:28.474Z,100706.50
2023-03-17T03:41:58.242Z,100730.75
2023-03-17T03:44:26.724Z,100731.53
2023-03-17T03:46:56.267Z,100724.22
2023-03-17T03:49:24.515Z,100719.97
2023-03-17T03:51:52.693Z,100726.47
2023-03-17T03:54:21.078Z,100719.47
2023-03-17T03:56:49.296Z,100722.50
2023-03-17T03:59:17.534Z,100728.25
2023-03-17T04:01:46.107Z,100728.59
2023-03-17T04:04:16.263Z,100723.22
2023-03-17T04:06:44.570Z,100720.03
2023-03-17T04:09:13.414Z,100715.00
2023-03-17T04:11:41.796Z,100723.75
2023-03-17T04:14:10.110Z,100721.34
2023-03-17T04:16:38.329Z,100716.78
2023-03-17T04:19:06.792Z,100725.19
2023-03-17T04:21:36.639Z,100725.19
2023-03-17T04:24:05.352Z,100727.88
2023-03-17T04:26:33.915Z,100730.56
2023-03-17T04:29:02.133Z,100732.47
2023-03-17T04:31:30.747Z,100718.59
2023-03-17T04:33:59.067Z,100718.91
2023-03-17T04:36:27.318Z,100723.53
2023-03-17T04:38:56.886Z,100716.53
2023-03-17T04:41:25.286Z,100719.56
2023-03-17T04:43:53.496Z,100729.53
2023-03-17T04:46:21.934Z,100731.13
2023-03-17T04:48:50.139Z,100732.69
2023-03-17T04:51:18.662Z,100727.63
2023-03-17T04:53:47.075Z,100733.03
2023-03-17T04:56:17.589Z,100730.34
2023-03-17T04:58:46.567Z,100724.94
2023-03-17T05:01:15.035Z,100732.69
2023-03-17T05:03:43.431Z,100737.28
2023-03-17T05:06:12.015Z,100727.31
2023-03-17T05:08:40.388Z,100727.31
2023-03-17T05:11:08.609Z,100736.16
2023-03-17T05:13:38.311Z,100739.97
2023-03-17T05:16:07.756Z,100729.53
2023-03-17T05:18:37.473Z,100724.94
2023-03-17T05:21:07.714Z,100721.00
2023-03-17T05:23:36.083Z,100720.22
2023-03-17T05:26:04.902Z,100719.44
2023-03-17T05:28:33.332Z,100724.38
2023-03-17T05:31:03.594Z,100715.53
2023-03-17T05:33:31.964Z,100720.13
2023-03-17T05:36:00.279Z,100723.94
2023-03-17T05:38:28.499Z,100718.22
2023-03-17T05:40:57.048Z,100726.63
2023-03-17T05:43:25.606Z,100723.94
2023-03-17T05:45:53.941Z,100721.56
2023-03-17T05:48:23.722Z,100726.16
2023-03-17T05:50:52.160Z,100714.63
2023-03-17T05:53:20.846Z,100706.22
2023-03-17T05:55:49.344Z,100701.94
2023-03-17T05:58:17.557Z,100706.84
2023-03-17T06:00:46.223Z,100710.66
2023-03-17T06:03:14.792Z,100702.91
2023-03-17T06:05:44.393Z,100704.03
2023-03-17T06:08:13.362Z,100700.91
2023-03-17T06:10:42.337Z,100710.88
2023-03-17T06:13:11.081Z,100712.00
2023-03-17T06:15:39.814Z,100712.00
2023-03-17T06:18:09.018Z,100708.97
2023-03-17T06:20:37.659Z,100720.19
2023-03-17T06:23:08.030Z,100718.63
2023-03-17T06:25:37.158Z,100721.44
2023-03-17T06:28:06.338Z,100725.69
2023-03-17T06:30:36.478Z,100724.56
2023-03-17T06:33:05.945Z,100715.41
2023-03-17T06:35:35.122Z,100719.66
2023-03-17T06:38:03.658Z,100727.06
2023-03-17T06:40:34.092Z,100728.31
2023-03-17T06:43:03.009Z,100731.13
2023-03-17T06:45:32.943Z,100733.97
2023-03-17T06:48:01.691Z,100735.94
2023-03-17T06:50:30.019Z,100731.81
2023-03-17T06:52:58.291Z,100736.88
2023-03-17T06:55:27.395Z,100739.81
2023-03-17T06:57:57.388Z,100733.88
2023-03-17T07:00:25.851Z,100729.84
2023-03-17T07:02:54.330Z,100725.03
2023-03-17T07:05:22.846Z,100728.28
2023-03-17T07:07:51.324Z,100730.31
2023-03-17T07:10:20.490Z,100720.78
2023-03-17T07:12:49.059Z,100727.81
2023-03-17T07:15:20.817Z,100726.06
2023-03-17T07:17:49.131Z,100728.63
2023-03-17T07:20:17.930Z,100728.03
2023-03-17T07:22:46.518Z,100729.84
2023-03-17T07:25:15.374Z,100731.22
2023-03-17T07:27:43.658Z,100734.91
2023-03-17T07:30:14.972Z,100730.06
2023-03-17T07:32:44.773Z,100730.72
2023-03-17T07:35:13.107Z,100721.25
2023-03-17T07:37:41.685Z,100723.84
2023-03-17T07:40:12.169Z,100723.25
2023-03-17T07:42:40.463Z,100721.53
2023-03-17T07:45:10.055Z,100716.00
2023-03-17T07:47:39.300Z,100715.50
2023-03-17T07:50:10.903Z,100719.97
2023-03-17T07:52:39.544Z,100727.91
2023-03-17T07:55:10.607Z,100722.38
2023-03-17T07:57:39.182Z,100725.34
2023-03-17T08:00:13.559Z,100727.94
2023-03-17T08:02:42.170Z,100732.06
2023-03-17T08:05:13.360Z,100732.34
2023-03-17T08:07:41.586Z,100727.63
2023-03-17T08:10:12.924Z,100734.75
2023-03-17T08:12:42.621Z,100734.19
2023-03-17T08:15:12.359Z,100733.25
2023-03-17T08:17:40.679Z,100732.69
2023-03-17T08:20:12.695Z,100720.97
2023-03-17T08:22:41.469Z,100726.69
2023-03-17T08:25:11.703Z,100728.94
2023-03-17T08:27:40.658Z,100742.03
2023-03-17T08:30:11.226Z,100739.94
2023-03-17T08:32:39.485Z,100729.88
2023-03-17T08:35:08.993Z,100735.97
2023-03-17T08:37:38.855Z,100743.44
2023-03-17T08:40:10.042Z,100736.97
2023-03-17T08:42:38.587Z,100738.22
2023-03-17T08:45:08.689Z,100724.44
2023-03-17T08:47:37.462Z,100706.34
2023-03-17T08:50:08.859Z,100707.59
2023-03-17T08:52:38.661Z,100705.00
2023-03-17T08:55:07.982Z,100718.66
2023-03-17T08:57:36.304Z,100717.28
2023-03-17T09:00:10.951Z,100720.56
2023-03-17T09:02:39.371Z,100720.06
2023-03-17T09:05:08.754Z,100715.22
2023-03-17T09:07:38.921Z,100731.22
2023-03-17T09:10:16.812Z,100731.31
2023-03-17T09:12:45.086Z,100739.53
2023-03-17T09:15:14.015Z,100734.63
2023-03-17T09:17:43.743Z,100731.31
2023-03-17T09:20:13.820Z,100728.75
2023-03-17T09:22:43.439Z,100720.72
2023-03-17T09:25:12.351Z,100713.44
2023-03-17T09:27:40.535Z,100704.28
2023-03-17T09:30:10.860Z,100698.59
2023-03-17T09:32:39.109Z,100706.03
2023-03-17T09:35:08.095Z,100708.84
2023-03-17T09:37:36.427Z,100724.13
2023-03-17T09:40:09.290Z,100731.97
2023-03-17T09:42:48.072Z,100727.31
2023-03-17T09:45:29.785Z,100712.94
2023-03-17T09:48:46.467Z,100705.63
2023-03-17T09:51:19.487Z,100701.34
2023-03-17T09:53:56.125Z,100720.47
2023-03-17T09:56:28.544Z,100725.16
2023-03-17T09:59:01.131Z,100722.41
2023-03-17T10:01:29.582Z,100717.34
2023-03-17T10:03:57.874Z,100716.59
2023-03-17T10:06:37.807Z,100706.00
2023-03-17T10:09:26.153Z,100721.59
2023-03-17T10:12:06.040Z,100712.59
2023-03-17T10:14:51.474Z,100695.00
2023-03-17T10:17:24.631Z,100712.41
2023-03-17T10:20:00.685Z,100705.25
2023-03-17T10:22:36.157Z,100708.25
2023-03-17T10:25:11.909Z,100706.81
2023-03-17T10:27:44.203Z,100708.97
2023-03-17T10:30:17.316Z,100716.25
2023-03-17T10:32:46.700Z,100716.25
2023-03-17T10:35:16.897Z,100713.56
2023-03-17T10:37:47.955Z,100710.69
2023-03-17T10:40:25.230Z,100716.88
2023-03-17T10:43:12.144Z,100697.97
2023-03-17T10:45:48.748Z,100700.28
2023-03-17T10:48:20.675Z,100696.69
2023-03-17T10:50:49.690Z,100696.00
2023-03-17T10:53:28.209Z,100694.66
2023-03-17T10:56:02.437Z,100695.91
2023-03-17T10:58:51.495Z,100688.28
2023-03-17T11:01:24.996Z,100682.91
2023-03-17T11:03:53.438Z,100676.72
2023-03-17T11:06:32.633Z,100678.34
2023-03-17T11:09:11.053Z,100666.53
2023-03-17T11:11:47.981Z,100661.19
2023-03-17T11:14:20.524Z,100663.97
2023-03-17T11:16:55.605Z,100663.59
2023-03-17T11:19:38.600Z,100668.19
2023-03-17T11:22:12.709Z,100665.25
2023-03-17T11:24:55.426Z,100672.59
2023-03-17T11:27:32.443Z,100666.72
2023-03-17T11:30:20.652Z,100657.44
2023-03-17T11:32:57.633Z,100659.94
2023-03-17T11:35:49.507Z,100640.22
2023-03-17T11:38:25.989Z,100642.63
2023-03-17T11:41:17.038Z,100634.72
2023-03-17T11:44:14.834Z,100642.47
2023-03-17T11:46:50.372Z,100647.91
2023-03-17T11:49:22.876Z,100646.56
2023-03-17T11:52:03.403Z,100652.38
2023-03-17T11:54:45.747Z,100638.94
2023-03-17T11:57:19.752Z,100650.06
2023-03-17T11:59:53.674Z,100642.22
2023-03-17T12:02:30.947Z,100636.78
2023-03-17T12:05:05.090Z,100620.75
2023-03-17T12:07:37.468Z,100620.34
2023-03-17T12:10:17.684Z,100619.50
2023-03-17T12:12:51.739Z,100613.56
2023-03-17T12:15:30.468Z,100618.25
2023-03-17T12:18:04.301Z,100610.09
2023-03-17T12:20:42.284Z,100616.41
2023-03-17T12:23:18.883Z,100626.31
2023-03-17T12:25:57.687Z,100624.09
2023-03-17T12:28:29.828Z,100626.09
2023-03-17T12:31:06.820Z,100619.50
2023-03-17T12:33:43.800Z,100630.56
2023-03-17T12:36:17.024Z,100631.03
2023-03-17T12:38:51.272Z,100617.44
2023-03-17T12:41:49.765Z,100622.13
2023-03-17T12:44:38.044Z,100616.56
2023-03-17T12:47:22.856Z,100622.78
2023-03-17T12:50:36.747Z,100617.03
2023-03-17T12:53:26.702Z,100610.44
2023-03-17T12:55:59.579Z,100616.75
2023-03-17T12:58:34.083Z,100610.00
2023-03-17T13:01:17.401Z,100604.81
2023-03-17T13:04:02.645Z,100598.53
2023-03-17T13:06:40.804Z,100598.44
2023-03-17T13:09:48.228Z,100585.09
2023-03-17T13:13:07.182Z,100576.25
2023-03-17T13:16:28.009Z,100588.47
2023-03-17T13:19:18.668Z,100586.84
2023-03-17T13:22:13.926Z,100581.03
2023-03-17T13:24:48.411Z,100581.72
2023-03-17T13:27:45.152Z,100577.28
2023-03-17T13:30:57.025Z,100585.81
2023-03-17T13:33:32.541Z,100586.59
2023-03-17T13:36:30.288Z,100587.38
2023-03-17T13:39:36.303Z,100576.81
2023-03-17T13:42:43.385Z,100575.75
2023-03-17T13:45:37.342Z,100577.38
2023-03-17T13:48:34.101Z,100565.63
2023-03-17T13:51:15.629Z,100570.25
2023-03-17T13:53:51.046Z,100581.19
2023-03-17T13:56:26.357Z,100580.44
2023-03-17T13:59:07.432Z,100590.19
2023-03-17T14:01:40.836Z,100577.59
2023-03-17T14:04:20.237Z,100567.81
2023-03-17T14:06:52.605Z,100563.91
2023-03-17T14:09:35.747Z,100555.25
2023-03-17T14:12:13.608Z,100556.84
2023-03-17T14:14:51.252Z,100555.13
2023-03-17T14:17:24.815Z,100553.56
2023-03-17T14:20:08.184Z,100541.50
2023-03-17T14:22:45.018Z,100538.34
2023-03-17T14:25:19.438Z,100539.06
2023-03-17T14:27:52.843Z,100535.94
2023-03-17T14:30:24.777Z,100544.16
2023-03-17T14:33:00.004Z,100539.53
2023-03-17T14:35:32.384Z,100546.22
2023-03-17T14:38:02.675Z,100536.44
2023-03-17T14:40:36.874Z,100538.75
2023-03-17T14:43:06.845Z,100537.13
2023-03-17T14:45:50.394Z,100536.63
2023-03-17T14:48:26.767Z,100531.53
2023-03-17T14:50:59.794Z,100526.94
2023-03-17T14:53:28.065Z,100527.44
2023-03-17T14:55:57.313Z,100520.81
2023-03-17T14:58:31.377Z,100523.94
2023-03-17T15:01:07.134Z,100518.38
2023-03-17T15:03:40.564Z,100526.94
2023-03-17T15:06:24.718Z,100522.22
2023-03-17T15:08:53.846Z,100528.00
2023-03-17T15:11:29.872Z,100521.69
2023-03-17T15:14:16.361Z,100525.22
2023-03-17T15:16:50.273Z,100521.38
2023-03-17T15:19:27.542Z,100520.69
2023-03-17T15:22:00.270Z,100509.44
2023-03-17T15:24:40.527Z,100504.75
2023-03-17T15:27:16.794Z,100518.47
2023-03-17T15:29:48.274Z,100512.19
2023-03-17T15:32:20.115Z,100513.38
2023-03-17T15:34:48.854Z,100515.34
2023-03-17T15:37:19.257Z,100507.13
2023-03-17T15:39:48.363Z,100502.03
2023-03-17T15:42:19.556Z,100504.75
2023-03-17T15:44:49.265Z,100505.94
2023-03-17T15:47:20.433Z,100507.91
2023-03-17T15:49:50.960Z,100509.09
2023-03-17T15:52:24.988Z,100513.47
2023-03-17T15:54:54.552Z,100506.03
2023-03-17T15:57:23.388Z,100502.97
2023-03-17T15:59:53.373Z,100510.41
2023-03-17T16:02:31.778Z,100502.25
2023-03-17T16:05:01.428Z,100507.38
2023-03-17T16:07:31.046Z,100512.53
2023-03-17T16:09:59.460Z,100514.09
2023-03-17T16:12:27.757Z,100506.28
2023-03-17T16:14:57.407Z,100506.75
2023-03-17T16:17:29.038Z,100504.47
2023-03-17T16:19:58.459Z,100512.72
2023-03-17T16:22:40.035Z,100513.56
2023-03-17T16:25:21.453Z,100517.13
2023-03-17T16:27:50.351Z,100516.44
2023-03-17T16:30:23.202Z,100516.13
2023-03-17T16:32:52.181Z,100502.47
2023-03-17T16:35:23.690Z,100502.97
2023-03-17T16:37:54.349Z,100507.34
2023-03-17T16:40:26.175Z,100508.59
2023-03-17T16:42:55.205Z,100511.78
2023-03-17T16:45:29.738Z,100523.50
2023-03-17T16:47:58.614Z,100528.63
2023-03-17T16:50:31.150Z,100534.53
2023-03-17T16:53:00.654Z,100536.84
2023-03-17T16:55:30.608Z,100530.19
2023-03-17T16:58:02.578Z,100532.13
2023-03-17T17:00:33.356Z,100541.53
2023-03-17T17:03:01.853Z,100546.34
2023-03-17T17:05:32.212Z,100548.03
2023-03-17T17:08:00.854Z,100558.31
2023-03-17T17:10:32.474Z,100550.19
2023-03-17T17:13:01.221Z,100565.50
2023-03-17T17:15:31.840Z,100569.53
2023-03-17T17:18:03.993Z,100573.56
2023-03-17T17:20:35.911Z,100576.81
2023-03-17T17:23:05.012Z,100576.47
2023-03-17T17:25:34.209Z,100564.41
2023-03-17T17:28:02.609Z,100562.50
2023-03-17T17:30:33.411Z,100561.75
2023-03-17T17:33:02.316Z,100579.44
2023-03-17T17:35:33.437Z,100586.16
2023-03-17T17:38:03.052Z,100578.78
2023-03-17T17:40:32.454Z,100577.25
2023-03-17T17:43:01.604Z,100585.09
2023-03-17T17:45:33.838Z,100587.47
2023-03-17T17:48:02.124Z,100589.47
2023-03-17T17:50:31.938Z,100582.09
2023-03-17T17:53:05.257Z,100584.09
2023-03-17T17:55:34.767Z,100585.63
2023-03-17T17:58:03.174Z,100606.75
2023-03-17T18:00:33.445Z,100608.72
2023-03-17T18:03:01.822Z,100620.06
2023-03-17T18:05:32.228Z,100627.09
2023-03-17T18:08:02.418Z,100616.59
2023-03-17T18:10:31.771Z,100623.22
2023-03-17T18:13:00.344Z,100621.31
2023-03-17T18:15:29.126Z,100620.53
2023-03-17T18:17:58.822Z,100619.03
2023-03-17T18:20:27.448Z,100622.88
2023-03-17T18:22:55.849Z,100630.34
2023-03-17T18:25:25.503Z,100622.53
2023-03-17T18:27:54.254Z,100618.25
2023-03-17T18:30:26.186Z,100628.81
2023-03-17T18:33:03.147Z,100625.69
2023-03-17T18:35:32.105Z,100635.47
2023-03-17T18:38:01.516Z,100633.91
2023-03-17T18:40:31.055Z,100632.72
2023-03-17T18:42:59.633Z,100630.78
2023-03-17T18:45:28.265Z,100628.44
2023-03-17T18:47:58.087Z,100636.25
2023-03-17T18:50:26.737Z,100633.53
2023-03-17T18:52:55.875Z,100639.03
2023-03-17T18:55:24.246Z,100634.69
2023-03-17T18:57:54.504Z,100638.25
2023-03-17T19:00:25.294Z,100633.19
2023-03-17T19:02:54.690Z,100633.97
2023-03-17T19:05:25.641Z,100639.44
2023-03-17T19:07:54.136Z,100638.25
2023-03-17T19:10:22.686Z,100640.22
2023-03-17T19:12:52.252Z,100631.28
2023-03-17T19:15:21.655Z,100628.91
2023-03-17T19:17:50.434Z,100633.59
2023-03-17T19:20:20.065Z,100626.97
2023-03-17T19:22:49.970Z,100631.66
2023-03-17T19:25:18.459Z,100625.06
2023-03-17T19:27:46.997Z,100629.31
2023-03-17T19:30:16.265Z,100626.22
2023-03-17T19:32:44.625Z,100631.66
2023-03-17T19:35:12.980Z,100632.47
2023-03-17T19:37:41.422Z,100634.81
2023-03-17T19:40:13.716Z,100631.66
2023-03-17T19:42:42.204Z,100635.94
2023-03-17T19:45:11.690Z,100630.13
2023-03-17T19:47:40.751Z,100627.41
2023-03-17T19:50:11.157Z,100635.19
2023-03-17T19:52:39.424Z,100637.53
2023-03-17T19:55:10.728Z,100635.59
2023-03-17T19:57:39.103Z,100632.47
2023-03-17T20:00:09.849Z,100645.72
2023-03-17T20:02:38.369Z,100644.53
2023-03-17T20:05:08.475Z,100655.84
2023-03-17T20:07:37.098Z,100648.44
2023-03-17T20:10:07.711Z,100661.31
2023-03-17T20:12:38.482Z,100652.31
2023-03-17T20:15:09.318Z,100656.22
2023-03-17T20:17:37.841Z,100657.41
2023-03-17T20:20:09.197Z,100660.13
2023-03-17T20:22:39.097Z,100661.28
2023-03-17T20:25:10.353Z,100668.31
2023-03-17T20:27:40.293Z,100670.25
2023-03-17T20:30:12.294Z,100664.38
2023-03-17T20:32:40.700Z,100677.25
2023-03-17T20:35:10.057Z,100670.22
2023-03-17T20:37:38.874Z,100678.41
2023-03-17T20:40:09.955Z,100678.41
2023-03-17T20:42:39.429Z,100681.53
2023-03-17T20:45:08.872Z,100672.56
2023-03-17T20:47:37.614Z,100675.28
2023-03-17T20:50:08.614Z,100671.78
2023-03-17T20:52:37.196Z,100684.25
2023-03-17T20:55:06.392Z,100680.75
2023-03-17T20:57:35.380Z,100674.13
2023-03-17T21:00:06.197Z,100683.84
2023-03-17T21:02:34.790Z,100672.94
2023-03-17T21:05:04.530Z,100681.91
2023-03-17T21:07:34.225Z,100682.28
2023-03-17T21:10:02.843Z,100673.75
2023-03-17T21:12:31.858Z,100677.66
2023-03-17T21:15:00.814Z,100683.47
2023-03-17T21:17:30.812Z,100685.78
2023-03-17T21:19:59.220Z,100687.75
2023-03-17T21:22:27.712Z,100676.47
2023-03-17T21:24:56.001Z,100685.44
2023-03-17T21:27:24.378Z,100670.63
2023-03-17T21:29:53.024Z,100681.13
2023-03-17T21:32:21.389Z,100685.41
2023-03-17T21:34:51.028Z,100691.28
2023-03-17T21:37:19.344Z,100686.19
2023-03-17T21:39:47.662Z,100690.88
2023-03-17T21:42:16.020Z,100688.56
2023-03-17T21:44:45.815Z,100689.31
2023-03-17T21:47:14.138Z,100688.56
2023-03-17T21:49:42.479Z,100681.53
2023-03-17T21:52:12.482Z,100677.25
2023-03-17T21:54:40.761Z,100683.09
2023-03-17T21:57:09.385Z,100683.09
2023-03-17T21:59:38.627Z,100683.09
2023-03-17T22:02:07.284Z,100684.25
2023-03-17T22:04:35.601Z,100685.44
2023-03-17T22:07:04.637Z,100698.28
2023-03-17T22:09:34.348Z,100686.59
2023-03-17T22:12:03.723Z,100693.97
2023-03-17T22:14:32.199Z,100697.09
2023-03-17T22:17:00.610Z,100692.81
2023-03-17T22:19:29.363Z,100699.41
2023-03-17T22:21:57.642Z,100699.41
2023-03-17T22:24:25.948Z,100696.28
2023-03-17T22:26:55.955Z,100701.75
2023-03-17T22:29:24.384Z,100702.09
2023-03-17T22:31:52.829Z,100707.19
2023-03-17T22:34:21.100Z,100713.75
2023-03-17T22:36:49.419Z,100708.72
2023-03-17T22:39:17.854Z,100714.56
2023-03-17T22:41:46.153Z,100710.63
2023-03-17T22:44:15.897Z,100723.47
2023-03-17T22:46:44.242Z,100726.22
2023-03-17T22:49:12.885Z,100721.13
2023-03-17T22:51:42.115Z,100726.56
2023-03-17T22:54:11.397Z,100728.13
2023-03-17T22:56:40.109Z,100736.69
2023-03-17T22:59:08.413Z,100732.00
2023-03-17T23:01:38.091Z,100734.34
2023-03-17T23:04:06.561Z,100735.09
2023-03-17T23:06:35.250Z,100739.38
2023-03-17T23:09:03.545Z,100738.56
2023-03-17T23:11:31.962Z,100731.16
2023-03-17T23:14:00.363Z,100733.84
2023-03-17T23:16:28.719Z,100723.72
2023-03-17T23:18:58.526Z,100727.59
2023-03-17T23:21:31.821Z,100736.56
2023-03-17T23:24:01.042Z,100735.00
2023-03-17T23:26:30.065Z,100748.19
2023-03-17T23:28:58.537Z,100748.19
2023-03-17T23:31:27.456Z,100737.25
2023-03-17T23:33:57.099Z,100744.25
2023-03-17T23:36:25.405Z,100738.78
2023-03-17T23:38:53.899Z,100736.44
2023-03-17T23:41:22.647Z,100738.78
2023-03-17T23:43:51.058Z,100727.47
2023-03-17T23:46:19.623Z,100735.63
2023-03-17T23:48:48.315Z,100727.03
2023-03-17T23:51:17.910Z,100729.78
2023-03-17T23:53:46.671Z,100743.31
2023-03-17T23:56:15.296Z,100744.81
2023-03-17T23:58:43.716Z,100747.16
